sensor_id;sensor_type;location;lat;lon;timestamp;pressure;altitude;pressure_sealevel;temperature;humidity
21433;BME280;18592;49.708;10.900;2023-05-15T00:00:52;98163.19;;;16.75;48.20
21433;BME280;18592;49.708;10.900;2023-05-15T00:02:58;98156.34;;;16.73;48.21
21433;BME280;18592;49.708;10.900;2023-05-15T00:05:00;98159.41;;;16.71;48.09
21433;BME280;18592;49.708;10.900;2023-05-15T00:07:01;98156.94;;;16.70;48.23
21433;BME280;18592;49.708;10.900;2023-05-15T00:09:12;98158.38;;;16.67;48.40
21433;BME280;18592;49.708;10.900;2023-05-15T00:11:13;98163.66;;;16.64;48.37
21433;BME280;18592;49.708;10.900;2023-05-15T00:13:16;98172.22;;;16.62;48.42
21433;BME280;18592;49.708;10.900;2023-05-15T00:15:18;98171.41;;;16.62;48.34
21433;BME280;18592;49.708;10.900;2023-05-15T00:17:19;98173.63;;;16.60;48.54
21433;BME280;18592;49.708;10.900;2023-05-15T00:19:24;98188.78;;;16.57;48.61
21433;BME280;18592;49.708;10.900;2023-05-15T00:21:27;98187.19;;;16.56;48.67
21433;BME280;18592;49.708;10.900;2023-05-15T00:23:28;98182.78;;;16.55;48.67
21433;BME280;18592;49.708;10.900;2023-05-15T00:25:30;98178.69;;;16.52;48.60
21433;BME280;18592;49.708;10.900;2023-05-15T00:27:31;98176.50;;;16.49;48.67
21433;BME280;18592;49.708;10.900;2023-05-15T00:29:33;98178.47;;;16.49;48.69
21433;BME280;18592;49.708;10.900;2023-05-15T00:31:35;98173.22;;;16.47;48.64
21433;BME280;18592;49.708;10.900;2023-05-15T00:33:37;98177.91;;;16.47;48.67
21433;BME280;18592;49.708;10.900;2023-05-15T00:35:38;98172.72;;;16.45;48.82
21433;BME280;18592;49.708;10.900;2023-05-15T00:37:40;98166.72;;;16.43;48.65
21433;BME280;18592;49.708;10.900;2023-05-15T00:39:44;98170.88;;;16.41;48.74
21433;BME280;18592;49.708;10.900;2023-05-15T00:41:49;98169.22;;;16.40;48.83
21433;BME280;18592;49.708;10.900;2023-05-15T00:44:07;98159.34;;;16.39;48.77
21433;BME280;18592;49.708;10.900;2023-05-15T00:46:12;98159.13;;;16.35;49.01
21433;BME280;18592;49.708;10.900;2023-05-15T00:48:16;98164.09;;;16.33;49.01
21433;BME280;18592;49.708;10.900;2023-05-15T00:50:18;98151.47;;;16.32;49.14
21433;BME280;18592;49.708;10.900;2023-05-15T00:52:20;98141.88;;;16.30;49.29
21433;BME280;18592;49.708;10.900;2023-05-15T00:54:23;98149.28;;;16.29;49.25
21433;BME280;18592;49.708;10.900;2023-05-15T00:56:26;98141.34;;;16.28;49.09
21433;BME280;18592;49.708;10.900;2023-05-15T00:58:33;98151.84;;;16.26;49.19
21433;BME280;18592;49.708;10.900;2023-05-15T01:00:41;98155.19;;;16.23;49.30
21433;BME280;18592;49.708;10.900;2023-05-15T01:02:43;98158.25;;;16.21;49.29
21433;BME280;18592;49.708;10.900;2023-05-15T01:04:47;98157.69;;;16.19;49.27
21433;BME280;18592;49.708;10.900;2023-05-15T01:06:49;98155.25;;;16.18;49.42
21433;BME280;18592;49.708;10.900;2023-05-15T01:08:55;98155.56;;;16.16;49.58
21433;BME280;18592;49.708;10.900;2023-05-15T01:11:02;98154.22;;;16.14;49.55
21433;BME280;18592;49.708;10.900;2023-05-15T01:13:08;98158.91;;;16.13;49.64
21433;BME280;18592;49.708;10.900;2023-05-15T01:15:10;98157.25;;;16.12;49.68
21433;BME280;18592;49.708;10.900;2023-05-15T01:17:11;98161.72;;;16.08;49.73
21433;BME280;18592;49.708;10.900;2023-05-15T01:19:13;98164.47;;;16.08;49.54
21433;BME280;18592;49.708;10.900;2023-05-15T01:24:10;98157.13;;;16.04;49.96
21433;BME280;18592;49.708;10.900;2023-05-15T01:26:46;98157.41;;;16.02;50.01
21433;BME280;18592;49.708;10.900;2023-05-15T01:28:53;98155.78;;;16.01;49.96
21433;BME280;18592;49.708;10.900;2023-05-15T01:31:05;98145.06;;;16.00;50.03
21433;BME280;18592;49.708;10.900;2023-05-15T01:33:17;98150.88;;;15.98;50.02
21433;BME280;18592;49.708;10.900;2023-05-15T01:37:41;98151.75;;;15.94;50.04
21433;BME280;18592;49.708;10.900;2023-05-15T01:39:49;98156.44;;;15.93;50.17
21433;BME280;18592;49.708;10.900;2023-05-15T01:42:02;98148.78;;;15.90;50.10
21433;BME280;18592;49.708;10.900;2023-05-15T01:44:13;98149.06;;;15.88;50.18
21433;BME280;18592;49.708;10.900;2023-05-15T01:46:18;98148.84;;;15.85;50.06
21433;BME280;18592;49.708;10.900;2023-05-15T01:48:25;98153.50;;;15.84;50.05
21433;BME280;18592;49.708;10.900;2023-05-15T01:50:31;98148.31;;;15.83;49.99
21433;BME280;18592;49.708;10.900;2023-05-15T01:52:38;98152.75;;;15.79;50.13
21433;BME280;18592;49.708;10.900;2023-05-15T01:54:41;98152.25;;;15.77;50.14
21433;BME280;18592;49.708;10.900;2023-05-15T01:56:44;98144.81;;;15.77;50.25
21433;BME280;18592;49.708;10.900;2023-05-15T01:58:51;98144.31;;;15.75;50.00
21433;BME280;18592;49.708;10.900;2023-05-15T02:00:53;98140.72;;;15.75;50.12
21433;BME280;18592;49.708;10.900;2023-05-15T02:02:56;98145.41;;;15.74;49.92
21433;BME280;18592;49.708;10.900;2023-05-15T02:04:58;98139.91;;;15.74;50.13
21433;BME280;18592;49.708;10.900;2023-05-15T02:07:03;98154.78;;;15.73;50.23
21433;BME280;18592;49.708;10.900;2023-05-15T02:09:08;98138.56;;;15.72;50.32
21433;BME280;18592;49.708;10.900;2023-05-15T02:11:12;98143.53;;;15.70;50.29
21433;BME280;18592;49.708;10.900;2023-05-15T02:13:14;98137.22;;;15.69;50.26
21433;BME280;18592;49.708;10.900;2023-05-15T02:15:17;98141.09;;;15.68;50.29
21433;BME280;18592;49.708;10.900;2023-05-15T02:17:20;98133.13;;;15.67;50.30
21433;BME280;18592;49.708;10.900;2023-05-15T02:19:23;98131.50;;;15.66;50.48
21433;BME280;18592;49.708;10.900;2023-05-15T02:21:25;98129.34;;;15.63;50.51
21433;BME280;18592;49.708;10.900;2023-05-15T02:23:26;98132.91;;;15.63;50.54
21433;BME280;18592;49.708;10.900;2023-05-15T02:26:05;98135.13;;;15.61;50.50
21433;BME280;18592;49.708;10.900;2023-05-15T02:28:16;98138.47;;;15.58;50.83
21433;BME280;18592;49.708;10.900;2023-05-15T02:30:22;98131.84;;;15.59;50.62
21433;BME280;18592;49.708;10.900;2023-05-15T02:37:09;98121.75;;;15.55;50.76
21433;BME280;18592;49.708;10.900;2023-05-15T02:39:12;98114.91;;;15.52;50.59
21433;BME280;18592;49.708;10.900;2023-05-15T02:41:16;98113.25;;;15.51;50.79
21433;BME280;18592;49.708;10.900;2023-05-15T02:43:18;98124.25;;;15.51;50.78
21433;BME280;18592;49.708;10.900;2023-05-15T02:45:22;98119.88;;;15.50;50.97
21433;BME280;18592;49.708;10.900;2023-05-15T02:47:25;98119.38;;;15.48;50.83
21433;BME280;18592;49.708;10.900;2023-05-15T02:49:28;98112.22;;;15.47;50.80
21433;BME280;18592;49.708;10.900;2023-05-15T02:51:32;98112.50;;;15.46;50.94
21433;BME280;18592;49.708;10.900;2023-05-15T02:53:40;98119.38;;;15.43;50.96
21433;BME280;18592;49.708;10.900;2023-05-15T02:55:42;98110.34;;;15.43;50.93
21433;BME280;18592;49.708;10.900;2023-05-15T02:57:44;98112.53;;;15.41;50.79
21433;BME280;18592;49.708;10.900;2023-05-15T02:59:46;98107.03;;;15.41;51.04
21433;BME280;18592;49.708;10.900;2023-05-15T03:01:47;98116.94;;;15.42;50.96
21433;BME280;18592;49.708;10.900;2023-05-15T03:03:49;98107.34;;;15.39;50.94
21433;BME280;18592;49.708;10.900;2023-05-15T03:05:51;98114.75;;;15.39;51.06
21433;BME280;18592;49.708;10.900;2023-05-15T03:07:53;98110.97;;;15.35;51.28
21433;BME280;18592;49.708;10.900;2023-05-15T03:09:54;98112.91;;;15.34;51.17
21433;BME280;18592;49.708;10.900;2023-05-15T03:11:56;98109.06;;;15.35;50.93
21433;BME280;18592;49.708;10.900;2023-05-15T03:14:03;98104.66;;;15.34;50.97
21433;BME280;18592;49.708;10.900;2023-05-15T03:16:05;98106.59;;;15.34;51.01
21433;BME280;18592;49.708;10.900;2023-05-15T03:18:10;98106.88;;;15.32;51.02
21433;BME280;18592;49.708;10.900;2023-05-15T03:20:11;98106.06;;;15.32;51.00
21433;BME280;18592;49.708;10.900;2023-05-15T03:22:14;98107.47;;;15.29;51.05
21433;BME280;18592;49.708;10.900;2023-05-15T03:24:16;98115.69;;;15.29;51.28
21433;BME280;18592;49.708;10.900;2023-05-15T03:26:17;98106.94;;;15.27;51.28
21433;BME280;18592;49.708;10.900;2023-05-15T03:28:25;98109.16;;;15.25;51.15
21433;BME280;18592;49.708;10.900;2023-05-15T03:30:27;98109.75;;;15.22;51.20
21433;BME280;18592;49.708;10.900;2023-05-15T03:32:28;98106.50;;;15.20;51.33
21433;BME280;18592;49.708;10.900;2023-05-15T03:34:30;98104.84;;;15.19;51.23
21433;BME280;18592;49.708;10.900;2023-05-15T03:36:32;98107.88;;;15.17;51.20
21433;BME280;18592;49.708;10.900;2023-05-15T03:38:34;98104.31;;;15.17;51.18
21433;BME280;18592;49.708;10.900;2023-05-15T03:40:38;98108.75;;;15.13;51.49
21433;BME280;18592;49.708;10.900;2023-05-15T03:42:40;98098.88;;;15.12;51.20
21433;BME280;18592;49.708;10.900;2023-05-15T03:44:53;98097.53;;;15.09;51.27
21433;BME280;18592;49.708;10.900;2023-05-15T03:46:56;98100.56;;;15.08;51.18
21433;BME280;18592;49.708;10.900;2023-05-15T03:49:01;98102.25;;;15.04;51.44
21433;BME280;18592;49.708;10.900;2023-05-15T03:51:02;98106.94;;;15.03;51.30
21433;BME280;18592;49.708;10.900;2023-05-15T03:53:04;98104.19;;;15.03;51.46
21433;BME280;18592;49.708;10.900;2023-05-15T03:55:06;98111.06;;;15.01;51.21
21433;BME280;18592;49.708;10.900;2023-05-15T03:57:11;98095.19;;;14.98;51.37
21433;BME280;18592;49.708;10.900;2023-05-15T03:59:14;98093.56;;;14.97;51.31
21433;BME280;18592;49.708;10.900;2023-05-15T04:01:16;98102.88;;;14.96;51.15
21433;BME280;18592;49.708;10.900;2023-05-15T04:03:18;98109.50;;;14.95;51.55
21433;BME280;18592;49.708;10.900;2023-05-15T04:05:22;98105.41;;;14.92;51.50
21433;BME280;18592;49.708;10.900;2023-05-15T04:07:24;98104.06;;;14.90;51.23
21433;BME280;18592;49.708;10.900;2023-05-15T04:09:26;98105.16;;;14.89;51.60
21433;BME280;18592;49.708;10.900;2023-05-15T04:11:30;98106.25;;;14.88;51.48
21433;BME280;18592;49.708;10.900;2023-05-15T04:13:35;98107.38;;;14.87;51.47
21433;BME280;18592;49.708;10.900;2023-05-15T04:15:37;98101.38;;;14.85;51.19
21433;BME280;18592;49.708;10.900;2023-05-15T04:17:38;98103.56;;;14.83;51.47
21433;BME280;18592;49.708;10.900;2023-05-15T04:19:40;98111.78;;;14.83;51.64
21433;BME280;18592;49.708;10.900;2023-05-15T04:21:43;98112.09;;;14.81;51.58
21433;BME280;18592;49.708;10.900;2023-05-15T04:23:47;98110.44;;;14.80;51.77
21433;BME280;18592;49.708;10.900;2023-05-15T04:25:48;98110.75;;;14.79;51.77
21433;BME280;18592;49.708;10.900;2023-05-15T04:27:50;98104.75;;;14.77;51.81
21433;BME280;18592;49.708;10.900;2023-05-15T04:29:52;98105.84;;;14.76;51.71
21433;BME280;18592;49.708;10.900;2023-05-15T04:31:53;98114.88;;;14.76;51.84
21433;BME280;18592;49.708;10.900;2023-05-15T04:33:55;98109.72;;;14.75;51.72
21433;BME280;18592;49.708;10.900;2023-05-15T04:35:59;98111.91;;;14.73;52.14
21433;BME280;18592;49.708;10.900;2023-05-15T04:38:01;98111.63;;;14.74;51.98
21433;BME280;18592;49.708;10.900;2023-05-15T04:40:06;98111.91;;;14.73;52.01
21433;BME280;18592;49.708;10.900;2023-05-15T04:42:08;98108.63;;;14.71;52.28
21433;BME280;18592;49.708;10.900;2023-05-15T04:44:10;98103.97;;;14.71;51.96
21433;BME280;18592;49.708;10.900;2023-05-15T04:46:11;98116.34;;;14.69;52.21
21433;BME280;18592;49.708;10.900;2023-05-15T04:48:13;98107.00;;;14.70;52.07
21433;BME280;18592;49.708;10.900;2023-05-15T04:50:18;98103.44;;;14.69;52.48
21433;BME280;18592;49.708;10.900;2023-05-15T04:52:19;98110.53;;;14.70;52.46
21433;BME280;18592;49.708;10.900;2023-05-15T04:54:21;98104.25;;;14.70;52.52
21433;BME280;18592;49.708;10.900;2023-05-15T04:56:22;98116.34;;;14.69;52.46
21433;BME280;18592;49.708;10.900;2023-05-15T04:58:24;98103.72;;;14.68;52.63
21433;BME280;18592;49.708;10.900;2023-05-15T05:00:27;98110.28;;;14.72;52.65
21433;BME280;18592;49.708;10.900;2023-05-15T05:02:29;98105.63;;;14.72;52.64
21433;BME280;18592;49.708;10.900;2023-05-15T05:04:30;98105.31;;;14.74;52.62
21433;BME280;18592;49.708;10.900;2023-05-15T05:06:35;98105.00;;;14.75;52.84
21433;BME280;18592;49.708;10.900;2023-05-15T05:08:37;98100.88;;;14.78;52.62
21433;BME280;18592;49.708;10.900;2023-05-15T05:10:39;98099.78;;;14.79;52.56
21433;BME280;18592;49.708;10.900;2023-05-15T05:12:40;98107.13;;;14.83;52.40
21433;BME280;18592;49.708;10.900;2023-05-15T05:14:42;98105.22;;;14.84;52.46
21433;BME280;18592;49.708;10.900;2023-05-15T05:16:44;98110.13;;;14.87;52.46
21433;BME280;18592;49.708;10.900;2023-05-15T05:18:46;98113.09;;;14.90;52.39
21433;BME280;18592;49.708;10.900;2023-05-15T05:20:48;98113.03;;;14.95;52.32
21433;BME280;18592;49.708;10.900;2023-05-15T05:22:50;98105.06;;;14.99;52.39
21433;BME280;18592;49.708;10.900;2023-05-15T05:24:52;98103.34;;;15.03;52.33
21433;BME280;18592;49.708;10.900;2023-05-15T05:26:53;98108.78;;;15.08;52.40
21433;BME280;18592;49.708;10.900;2023-05-15T05:28:58;98112.63;;;15.12;52.42
21433;BME280;18592;49.708;10.900;2023-05-15T05:31:00;98107.88;;;15.17;51.97
21433;BME280;18592;49.708;10.900;2023-05-15T05:33:02;98111.97;;;15.20;52.27
21433;BME280;18592;49.708;10.900;2023-05-15T05:35:07;98106.13;;;15.26;52.02
21433;BME280;18592;49.708;10.900;2023-05-15T05:37:10;98109.63;;;15.32;51.94
21433;BME280;18592;49.708;10.900;2023-05-15T05:39:12;98108.16;;;15.40;51.82
21433;BME280;18592;49.708;10.900;2023-05-15T05:41:16;98108.97;;;15.45;51.87
21433;BME280;18592;49.708;10.900;2023-05-15T05:43:18;98104.75;;;15.53;52.02
21433;BME280;18592;49.708;10.900;2023-05-15T05:45:21;98106.03;;;15.60;52.12
21433;BME280;18592;49.708;10.900;2023-05-15T05:47:22;98108.13;;;15.68;52.19
21433;BME280;18592;49.708;10.900;2023-05-15T05:49:24;98101.94;;;15.76;52.14
21433;BME280;18592;49.708;10.900;2023-05-15T05:51:25;98105.16;;;15.83;52.20
21433;BME280;18592;49.708;10.900;2023-05-15T05:53:27;98103.38;;;15.93;52.39
21433;BME280;18592;49.708;10.900;2023-05-15T05:55:29;98107.09;;;16.02;52.23
21433;BME280;18592;49.708;10.900;2023-05-15T05:57:31;98106.16;;;16.11;52.47
21433;BME280;18592;49.708;10.900;2023-05-15T05:59:32;98104.84;;;16.22;52.32
21433;BME280;18592;49.708;10.900;2023-05-15T06:01:34;98103.88;;;16.32;52.28
21433;BME280;18592;49.708;10.900;2023-05-15T06:03:37;98102.28;;;16.44;52.28
21433;BME280;18592;49.708;10.900;2023-05-15T06:05:39;98103.50;;;16.57;52.21
21433;BME280;18592;49.708;10.900;2023-05-15T06:07:41;98103.84;;;16.69;52.47
21433;BME280;18592;49.708;10.900;2023-05-15T06:09:43;98106.34;;;16.84;52.51
21433;BME280;18592;49.708;10.900;2023-05-15T06:11:46;98098.09;;;16.98;52.51
21433;BME280;18592;49.708;10.900;2023-05-15T06:13:47;98105.28;;;17.12;52.64
21433;BME280;18592;49.708;10.900;2023-05-15T06:15:55;98098.34;;;17.29;52.68
21433;BME280;18592;49.708;10.900;2023-05-15T06:17:56;98090.25;;;17.46;52.77
21433;BME280;18592;49.708;10.900;2023-05-15T06:19:58;98092.44;;;17.62;52.90
21433;BME280;18592;49.708;10.900;2023-05-15T06:22:00;98095.38;;;17.80;52.97
21433;BME280;18592;49.708;10.900;2023-05-15T06:24:01;98091.97;;;17.96;53.04
21433;BME280;18592;49.708;10.900;2023-05-15T06:26:06;98097.66;;;18.13;53.13
21433;BME280;18592;49.708;10.900;2023-05-15T06:28:08;98092.28;;;18.30;53.08
21433;BME280;18592;49.708;10.900;2023-05-15T06:30:12;98090.81;;;18.47;53.04
21433;BME280;18592;49.708;10.900;2023-05-15T06:32:14;98094.81;;;18.63;53.07
21433;BME280;18592;49.708;10.900;2023-05-15T06:34:15;98086.97;;;18.78;52.90
21433;BME280;18592;49.708;10.900;2023-05-15T06:36:17;98092.41;;;18.92;52.86
21433;BME280;18592;49.708;10.900;2023-05-15T06:38:19;98102.25;;;19.07;52.75
21433;BME280;18592;49.708;10.900;2023-05-15T06:40:20;98095.00;;;19.19;52.67
21433;BME280;18592;49.708;10.900;2023-05-15T06:42:24;98093.25;;;19.32;52.45
21433;BME280;18592;49.708;10.900;2023-05-15T06:44:28;98087.66;;;19.45;52.40
21433;BME280;18592;49.708;10.900;2023-05-15T06:46:30;98085.41;;;19.56;52.13
21433;BME280;18592;49.708;10.900;2023-05-15T06:48:32;98085.63;;;19.68;52.10
21433;BME280;18592;49.708;10.900;2023-05-15T06:50:33;98080.56;;;19.79;52.15
21433;BME280;18592;49.708;10.900;2023-05-15T06:52:49;98085.97;;;19.92;51.83
21433;BME280;18592;49.708;10.900;2023-05-15T06:54:50;98080.63;;;20.04;51.90
21433;BME280;18592;49.708;10.900;2023-05-15T06:56:52;98077.53;;;20.14;52.09
21433;BME280;18592;49.708;10.900;2023-05-15T06:58:53;98076.94;;;20.26;51.66
21433;BME280;18592;49.708;10.900;2023-05-15T07:00:55;98074.63;;;20.37;51.73
21433;BME280;18592;49.708;10.900;2023-05-15T07:02:59;98074.63;;;20.45;51.59
21433;BME280;18592;49.708;10.900;2023-05-15T07:05:01;98073.00;;;20.53;51.46
21433;BME280;18592;49.708;10.900;2023-05-15T07:07:03;98077.38;;;20.62;51.30
21433;BME280;18592;49.708;10.900;2023-05-15T07:09:05;98080.50;;;20.69;51.03
21433;BME280;18592;49.708;10.900;2023-05-15T07:11:06;98081.09;;;20.75;50.73
21433;BME280;18592;49.708;10.900;2023-05-15T07:13:08;98073.78;;;20.79;50.72
21433;BME280;18592;49.708;10.900;2023-05-15T07:15:10;98069.19;;;20.83;50.09
21433;BME280;18592;49.708;10.900;2023-05-15T07:17:11;98070.84;;;20.84;50.16
21433;BME280;18592;49.708;10.900;2023-05-15T07:19:16;98086.47;;;20.88;50.25
21433;BME280;18592;49.708;10.900;2023-05-15T07:21:19;98075.84;;;20.90;50.27
21433;BME280;18592;49.708;10.900;2023-05-15T07:23:21;98074.38;;;20.93;50.23
21433;BME280;18592;49.708;10.900;2023-05-15T07:25:23;98075.03;;;20.99;50.02
21433;BME280;18592;49.708;10.900;2023-05-15T07:27:25;98072.41;;;21.02;49.91
21433;BME280;18592;49.708;10.900;2023-05-15T07:29:27;98069.16;;;21.09;50.42
21433;BME280;18592;49.708;10.900;2023-05-15T07:31:29;98069.47;;;21.16;50.16
21433;BME280;18592;49.708;10.900;2023-05-15T07:33:34;98067.13;;;21.26;50.29
21433;BME280;18592;49.708;10.900;2023-05-15T07:35:35;98064.00;;;21.36;50.32
21433;BME280;18592;49.708;10.900;2023-05-15T07:37:37;98058.41;;;21.45;50.25
21433;BME280;18592;49.708;10.900;2023-05-15T07:39:39;98058.69;;;21.52;50.13
21433;BME280;18592;49.708;10.900;2023-05-15T07:41:40;98055.06;;;21.60;49.97
21433;BME280;18592;49.708;10.900;2023-05-15T07:43:42;98060.91;;;21.67;50.01
21433;BME280;18592;49.708;10.900;2023-05-15T07:45:44;98058.41;;;21.74;50.11
21433;BME280;18592;49.708;10.900;2023-05-15T07:47:47;98059.84;;;21.80;50.12
21433;BME280;18592;49.708;10.900;2023-05-15T07:49:49;98060.47;;;21.86;49.76
21433;BME280;18592;49.708;10.900;2023-05-15T07:51:51;98064.38;;;21.93;50.06
21433;BME280;18592;49.708;10.900;2023-05-15T07:53:52;98057.91;;;22.01;49.67
21433;BME280;18592;49.708;10.900;2023-05-15T07:55:54;98057.06;;;22.09;49.93
21433;BME280;18592;49.708;10.900;2023-05-15T07:57:55;98051.44;;;22.18;50.04
21433;BME280;18592;49.708;10.900;2023-05-15T07:59:57;98057.06;;;22.30;50.16
21433;BME280;18592;49.708;10.900;2023-05-15T08:02:01;98050.72;;;22.42;50.30
21433;BME280;18592;49.708;10.900;2023-05-15T08:04:06;98050.00;;;22.53;50.23
21433;BME280;18592;49.708;10.900;2023-05-15T08:06:09;98047.28;;;22.65;50.43
21433;BME280;18592;49.708;10.900;2023-05-15T08:08:10;98058.88;;;22.80;50.59
21433;BME280;18592;49.708;10.900;2023-05-15T08:10:12;98050.25;;;22.93;50.58
21433;BME280;18592;49.708;10.900;2023-05-15T08:12:18;98050.72;;;23.07;50.68
21433;BME280;18592;49.708;10.900;2023-05-15T08:14:24;98046.00;;;23.20;50.54
21433;BME280;18592;49.708;10.900;2023-05-15T08:16:26;98054.47;;;23.35;50.62
21433;BME280;18592;49.708;10.900;2023-05-15T08:18:28;98053.38;;;23.49;50.49
21433;BME280;18592;49.708;10.900;2023-05-15T08:20:29;98048.63;;;23.61;50.38
21433;BME280;18592;49.708;10.900;2023-05-15T08:22:32;98051.75;;;23.72;49.97
21433;BME280;18592;49.708;10.900;2023-05-15T08:24:33;98053.22;;;23.81;49.85
21433;BME280;18592;49.708;10.900;2023-05-15T08:26:35;98050.34;;;23.90;49.49
21433;BME280;18592;49.708;10.900;2023-05-15T08:28:37;98040.22;;;23.97;49.17
21433;BME280;18592;49.708;10.900;2023-05-15T08:30:38;98042.41;;;24.04;49.15
21433;BME280;18592;49.708;10.900;2023-05-15T08:32:42;98043.84;;;24.10;48.60
21433;BME280;18592;49.708;10.900;2023-05-15T08:34:44;98036.38;;;24.14;48.11
21433;BME280;18592;49.708;10.900;2023-05-15T08:36:46;98027.31;;;24.17;48.03
21433;BME280;18592;49.708;10.900;2023-05-15T08:38:47;98026.97;;;24.19;47.47
21433;BME280;18592;49.708;10.900;2023-05-15T08:40:49;98029.88;;;24.22;47.78
21433;BME280;18592;49.708;10.900;2023-05-15T08:42:54;98027.19;;;24.26;47.52
21433;BME280;18592;49.708;10.900;2023-05-15T08:44:56;98024.50;;;24.29;47.71
21433;BME280;18592;49.708;10.900;2023-05-15T08:46:59;98021.47;;;24.34;47.83
21433;BME280;18592;49.708;10.900;2023-05-15T08:49:10;98019.59;;;24.38;47.41
21433;BME280;18592;49.708;10.900;2023-05-15T08:51:16;98023.75;;;24.44;47.40
21433;BME280;18592;49.708;10.900;2023-05-15T08:53:19;98018.63;;;24.46;47.41
21433;BME280;18592;49.708;10.900;2023-05-15T08:55:21;98020.69;;;24.49;46.80
21433;BME280;18592;49.708;10.900;2023-05-15T08:57:25;98018.38;;;24.51;46.69
21433;BME280;18592;49.708;10.900;2023-05-15T08:59:32;98017.56;;;24.51;46.42
21433;BME280;18592;49.708;10.900;2023-05-15T09:01:34;98021.19;;;24.51;46.23
21433;BME280;18592;49.708;10.900;2023-05-15T09:03:36;98018.72;;;24.50;45.75
21433;BME280;18592;49.708;10.900;2023-05-15T09:05:38;98019.09;;;24.48;46.12
21433;BME280;18592;49.708;10.900;2023-05-15T09:07:44;98016.66;;;24.47;45.68
21433;BME280;18592;49.708;10.900;2023-05-15T09:09:46;98019.78;;;24.45;45.71
21433;BME280;18592;49.708;10.900;2023-05-15T09:11:49;98017.72;;;24.42;45.79
21433;BME280;18592;49.708;10.900;2023-05-15T09:13:52;98005.75;;;24.42;45.58
21433;BME280;18592;49.708;10.900;2023-05-15T09:15:53;98021.66;;;24.41;45.58
21433;BME280;18592;49.708;10.900;2023-05-15T09:17:55;98012.16;;;24.42;45.95
21433;BME280;18592;49.708;10.900;2023-05-15T09:19:57;98018.09;;;24.41;46.03
21433;BME280;18592;49.708;10.900;2023-05-15T09:22:19;98021.56;;;24.38;44.98
21433;BME280;18592;49.708;10.900;2023-05-15T09:24:24;98013.09;;;24.34;45.30
21433;BME280;18592;49.708;10.900;2023-05-15T09:26:28;98018.22;;;24.32;45.36
21433;BME280;18592;49.708;10.900;2023-05-15T09:28:31;98020.09;;;24.28;45.31
21433;BME280;18592;49.708;10.900;2023-05-15T09:30:38;98008.41;;;24.23;45.40
21433;BME280;18592;49.708;10.900;2023-05-15T09:32:42;98007.47;;;24.19;45.03
21433;BME280;18592;49.708;10.900;2023-05-15T09:34:47;98011.69;;;24.13;45.03
21433;BME280;18592;49.708;10.900;2023-05-15T09:36:48;98010.75;;;24.09;45.03
21433;BME280;18592;49.708;10.900;2023-05-15T09:38:59;98003.41;;;24.04;44.81
21433;BME280;18592;49.708;10.900;2023-05-15T09:41:03;98001.00;;;24.02;45.22
21433;BME280;18592;49.708;10.900;2023-05-15T09:43:05;98003.34;;;24.00;45.28
21433;BME280;18592;49.708;10.900;2023-05-15T09:45:15;98005.63;;;23.98;45.30
21433;BME280;18592;49.708;10.900;2023-05-15T09:47:18;98003.34;;;24.00;45.30
21433;BME280;18592;49.708;10.900;2023-05-15T09:49:20;97996.59;;;24.01;45.56
21433;BME280;18592;49.708;10.900;2023-05-15T09:51:21;98000.63;;;24.04;45.22
21433;BME280;18592;49.708;10.900;2023-05-15T09:53:23;97998.31;;;24.06;45.34
21433;BME280;18592;49.708;10.900;2023-05-15T09:55:25;97994.50;;;24.11;45.52
21433;BME280;18592;49.708;10.900;2023-05-15T09:57:28;98002.63;;;24.16;45.70
21433;BME280;18592;49.708;10.900;2023-05-15T09:59:32;97998.84;;;24.24;46.15
21433;BME280;18592;49.708;10.900;2023-05-15T10:01:36;97994.66;;;24.30;45.88
21433;BME280;18592;49.708;10.900;2023-05-15T10:03:39;97991.25;;;24.36;45.83
21433;BME280;18592;49.708;10.900;2023-05-15T10:05:42;97985.91;;;24.43;45.94
21433;BME280;18592;49.708;10.900;2023-05-15T10:07:44;97994.47;;;24.50;45.53
21433;BME280;18592;49.708;10.900;2023-05-15T10:09:46;97985.47;;;24.57;45.53
21433;BME280;18592;49.708;10.900;2023-05-15T10:11:51;97983.63;;;24.61;45.03
21433;BME280;18592;49.708;10.900;2023-05-15T10:13:54;97982.53;;;24.66;45.22
21433;BME280;18592;49.708;10.900;2023-05-15T10:15:56;97980.66;;;24.70;45.29
21433;BME280;18592;49.708;10.900;2023-05-15T10:17:58;97978.78;;;24.74;45.05
21433;BME280;18592;49.708;10.900;2023-05-15T10:20:03;97988.06;;;24.78;45.46
21433;BME280;18592;49.708;10.900;2023-05-15T10:22:09;97979.88;;;24.85;45.49
21433;BME280;18592;49.708;10.900;2023-05-15T10:24:12;97979.00;;;24.96;45.68
21433;BME280;18592;49.708;10.900;2023-05-15T10:26:23;97982.88;;;25.07;46.26
21433;BME280;18592;49.708;10.900;2023-05-15T10:28:28;97978.81;;;25.20;46.06
21433;BME280;18592;49.708;10.900;2023-05-15T10:30:32;97972.41;;;25.36;46.18
21433;BME280;18592;49.708;10.900;2023-05-15T10:32:34;97973.25;;;25.52;46.26
21433;BME280;18592;49.708;10.900;2023-05-15T10:34:38;97967.63;;;25.67;46.20
21433;BME280;18592;49.708;10.900;2023-05-15T10:36:40;97968.38;;;25.83;46.61
21433;BME280;18592;49.708;10.900;2023-05-15T10:38:46;97950.75;;;25.99;46.89
21433;BME280;18592;49.708;10.900;2023-05-15T10:40:48;97960.72;;;26.15;46.06
21433;BME280;18592;49.708;10.900;2023-05-15T10:42:58;97955.81;;;26.28;45.68
21433;BME280;18592;49.708;10.900;2023-05-15T10:45:02;97949.63;;;26.38;45.52
21433;BME280;18592;49.708;10.900;2023-05-15T10:47:04;97946.22;;;26.48;45.66
21433;BME280;18592;49.708;10.900;2023-05-15T10:49:06;97947.22;;;26.59;45.68
21433;BME280;18592;49.708;10.900;2023-05-15T10:51:18;97941.81;;;26.70;45.88
21433;BME280;18592;49.708;10.900;2023-05-15T10:53:24;97945.72;;;26.84;46.03
21433;BME280;18592;49.708;10.900;2023-05-15T10:55:26;97947.53;;;26.96;45.46